sensor_id;sensor_type;location;lat;lon;timestamp;temperature;humidity
17948;DHT22;9099;47.958;11.366;2023-02-26T00:00:04;0.80;99.90
17948;DHT22;9099;47.958;11.366;2023-02-26T00:02:35;0.90;99.90
17948;DHT22;9099;47.958;11.366;2023-02-26T00:05:02;1.00;99.90
17948;DHT22;9099;47.958;11.366;2023-02-26T00:07:29;1.00;99.90
17948;DHT22;9099;47.958;11.366;2023-02-26T00:09:55;1.00;99.90
17948;DHT22;9099;47.958;11.366;2023-02-26T00:12:24;0.80;99.90
17948;DHT22;9099;47.958;11.366;2023-02-26T00:14:52;0.80;99.90
17948;DHT22;9099;47.958;11.366;2023-02-26T00:17:30;0.70;99.90
17948;DHT22;9099;47.958;11.366;2023-02-26T00:19:58;0.70;99.90
17948;DHT22;9099;47.958;11.366;2023-02-26T00:22:25;0.70;99.90
17948;DHT22;9099;47.958;11.366;2023-02-26T00:24:52;0.70;99.90
17948;DHT22;9099;47.958;11.366;2023-02-26T00:27:19;0.70;99.90
17948;DHT22;9099;47.958;11.366;2023-02-26T00:29:48;0.70;99.90
17948;DHT22;9099;47.958;11.366;2023-02-26T00:32:15;0.70;99.90
17948;DHT22;9099;47.958;11.366;2023-02-26T00:34:44;0.70;99.90
17948;DHT22;9099;47.958;11.366;2023-02-26T00:37:22;0.70;99.90
17948;DHT22;9099;47.958;11.366;2023-02-26T00:40:02;0.70;99.90
17948;DHT22;9099;47.958;11.366;2023-02-26T00:42:33;0.70;99.90
17948;DHT22;9099;47.958;11.366;2023-02-26T00:45:03;0.70;99.90
17948;DHT22;9099;47.958;11.366;2023-02-26T00:47:35;0.60;99.90
17948;DHT22;9099;47.958;11.366;2023-02-26T00:50:13;0.60;99.90
17948;DHT22;9099;47.958;11.366;2023-02-26T00:52:46;0.50;99.90
17948;DHT22;9099;47.958;11.366;2023-02-26T00:55:15;0.60;99.90
17948;DHT22;9099;47.958;11.366;2023-02-26T00:57:42;0.60;99.90
17948;DHT22;9099;47.958;11.366;2023-02-26T01:00:11;0.50;99.90
17948;DHT22;9099;47.958;11.366;2023-02-26T01:02:39;0.50;99.90
17948;DHT22;9099;47.958;11.366;2023-02-26T01:05:07;0.60;99.90
17948;DHT22;9099;47.958;11.366;2023-02-26T01:07:41;0.60;99.90
17948;DHT22;9099;47.958;11.366;2023-02-26T01:10:11;0.60;99.90
17948;DHT22;9099;47.958;11.366;2023-02-26T01:12:38;0.60;99.90
17948;DHT22;9099;47.958;11.366;2023-02-26T01:15:06;0.70;99.90
17948;DHT22;9099;47.958;11.366;2023-02-26T01:17:40;0.60;99.90
17948;DHT22;9099;47.958;11.366;2023-02-26T01:20:15;0.60;99.90
17948;DHT22;9099;47.958;11.366;2023-02-26T01:22:47;0.60;99.90
17948;DHT22;9099;47.958;11.366;2023-02-26T01:25:22;0.70;99.90
17948;DHT22;9099;47.958;11.366;2023-02-26T01:27:50;0.60;99.90
17948;DHT22;9099;47.958;11.366;2023-02-26T01:30:18;0.70;99.90
17948;DHT22;9099;47.958;11.366;2023-02-26T01:32:49;0.70;99.90
17948;DHT22;9099;47.958;11.366;2023-02-26T01:35:28;0.70;99.90
17948;DHT22;9099;47.958;11.366;2023-02-26T01:38:00;0.70;99.90
17948;DHT22;9099;47.958;11.366;2023-02-26T01:40:45;0.70;99.90
17948;DHT22;9099;47.958;11.366;2023-02-26T01:43:23;0.70;99.90
17948;DHT22;9099;47.958;11.366;2023-02-26T01:45:58;0.60;99.90
17948;DHT22;9099;47.958;11.366;2023-02-26T01:48:36;0.50;99.90
17948;DHT22;9099;47.958;11.366;2023-02-26T01:51:04;0.30;99.90
17948;DHT22;9099;47.958;11.366;2023-02-26T01:53:31;0.30;99.90
17948;DHT22;9099;47.958;11.366;2023-02-26T01:56:00;0.20;99.90
17948;DHT22;9099;47.958;11.366;2023-02-26T01:58:31;0.10;99.90
17948;DHT22;9099;47.958;11.366;2023-02-26T02:00:59;0.10;99.90
17948;DHT22;9099;47.958;11.366;2023-02-26T02:03:27;0.10;99.90
17948;DHT22;9099;47.958;11.366;2023-02-26T02:06:00;0.00;99.90
17948;DHT22;9099;47.958;11.366;2023-02-26T02:08:28;-0.10;99.90
17948;DHT22;9099;47.958;11.366;2023-02-26T02:10:58;-0.10;99.90
17948;DHT22;9099;47.958;11.366;2023-02-26T02:13:34;-0.10;99.90
17948;DHT22;9099;47.958;11.366;2023-02-26T02:16:13;0.00;99.90
17948;DHT22;9099;47.958;11.366;2023-02-26T02:18:49;-0.10;99.90
17948;DHT22;9099;47.958;11.366;2023-02-26T02:21:35;-0.20;99.90
17948;DHT22;9099;47.958;11.366;2023-02-26T02:24:08;-0.20;99.90
17948;DHT22;9099;47.958;11.366;2023-02-26T02:26:52;-0.10;99.90
17948;DHT22;9099;47.958;11.366;2023-02-26T02:32:35;-0.10;99.90
17948;DHT22;9099;47.958;11.366;2023-02-26T02:35:08;-0.10;99.90
17948;DHT22;9099;47.958;11.366;2023-02-26T02:37:41;-0.20;99.90
17948;DHT22;9099;47.958;11.366;2023-02-26T02:40:13;-0.20;99.90
17948;DHT22;9099;47.958;11.366;2023-02-26T02:42:45;-0.20;99.90
17948;DHT22;9099;47.958;11.366;2023-02-26T02:45:17;-0.20;99.90
17948;DHT22;9099;47.958;11.366;2023-02-26T02:47:49;-0.20;99.90
17948;DHT22;9099;47.958;11.366;2023-02-26T02:50:23;-0.30;99.90
17948;DHT22;9099;47.958;11.366;2023-02-26T02:52:53;-0.30;99.90
17948;DHT22;9099;47.958;11.366;2023-02-26T02:55:24;-0.20;99.90
17948;DHT22;9099;47.958;11.366;2023-02-26T02:57:56;-0.20;99.90
17948;DHT22;9099;47.958;11.366;2023-02-26T03:00:27;-0.10;99.90
17948;DHT22;9099;47.958;11.366;2023-02-26T03:03:02;-0.20;99.90
17948;DHT22;9099;47.958;11.366;2023-02-26T03:05:32;-0.20;99.90
17948;DHT22;9099;47.958;11.366;2023-02-26T03:08:02;-0.30;99.90
17948;DHT22;9099;47.958;11.366;2023-02-26T03:10:31;-0.30;99.90
17948;DHT22;9099;47.958;11.366;2023-02-26T03:12:58;-0.30;99.90
17948;DHT22;9099;47.958;11.366;2023-02-26T03:15:32;-0.30;99.90
17948;DHT22;9099;47.958;11.366;2023-02-26T03:18:08;-0.40;99.90
17948;DHT22;9099;47.958;11.366;2023-02-26T03:20:41;-0.40;99.90
17948;DHT22;9099;47.958;11.366;2023-02-26T03:23:15;-0.40;99.90
17948;DHT22;9099;47.958;11.366;2023-02-26T03:25:49;-0.30;99.90
17948;DHT22;9099;47.958;11.366;2023-02-26T03:28:22;-0.30;99.90
17948;DHT22;9099;47.958;11.366;2023-02-26T03:30:56;-0.30;99.90
17948;DHT22;9099;47.958;11.366;2023-02-26T03:33:30;-0.40;99.90
17948;DHT22;9099;47.958;11.366;2023-02-26T03:36:05;-0.40;99.90
17948;DHT22;9099;47.958;11.366;2023-02-26T03:38:38;-0.50;99.90
17948;DHT22;9099;47.958;11.366;2023-02-26T03:41:09;-0.50;99.90
17948;DHT22;9099;47.958;11.366;2023-02-26T03:43:41;-0.50;99.90
17948;DHT22;9099;47.958;11.366;2023-02-26T03:46:14;-0.60;99.90
17948;DHT22;9099;47.958;11.366;2023-02-26T03:48:44;-0.70;99.90
17948;DHT22;9099;47.958;11.366;2023-02-26T03:51:12;-0.80;99.90
17948;DHT22;9099;47.958;11.366;2023-02-26T03:53:44;-1.00;99.90
17948;DHT22;9099;47.958;11.366;2023-02-26T03:56:16;-1.10;99.90
17948;DHT22;9099;47.958;11.366;2023-02-26T03:58:44;-1.00;99.90
17948;DHT22;9099;47.958;11.366;2023-02-26T04:01:14;-1.00;99.90
17948;DHT22;9099;47.958;11.366;2023-02-26T04:03:48;-1.00;99.90
17948;DHT22;9099;47.958;11.366;2023-02-26T04:06:16;-1.10;99.90
17948;DHT22;9099;47.958;11.366;2023-02-26T04:08:43;-1.20;99.90
17948;DHT22;9099;47.958;11.366;2023-02-26T04:11:11;-1.20;99.90
17948;DHT22;9099;47.958;11.366;2023-02-26T04:13:38;-1.20;99.90
17948;DHT22;9099;47.958;11.366;2023-02-26T04:16:06;-1.30;99.90
17948;DHT22;9099;47.958;11.366;2023-02-26T04:18:32;-1.30;99.90
17948;DHT22;9099;47.958;11.366;2023-02-26T04:21:01;-1.30;99.90
17948;DHT22;9099;47.958;11.366;2023-02-26T04:23:27;-1.40;99.90
17948;DHT22;9099;47.958;11.366;2023-02-26T04:25:54;-1.30;99.90
17948;DHT22;9099;47.958;11.366;2023-02-26T04:28:21;-1.40;99.90
17948;DHT22;9099;47.958;11.366;2023-02-26T04:30:48;-1.40;99.90
17948;DHT22;9099;47.958;11.366;2023-02-26T04:33:15;-1.30;99.90
17948;DHT22;9099;47.958;11.366;2023-02-26T04:35:42;-1.40;99.90
17948;DHT22;9099;47.958;11.366;2023-02-26T04:38:10;-1.50;99.90
17948;DHT22;9099;47.958;11.366;2023-02-26T04:40:37;-1.50;99.90
17948;DHT22;9099;47.958;11.366;2023-02-26T04:43:04;-1.50;99.90
17948;DHT22;9099;47.958;11.366;2023-02-26T04:45:31;-1.50;99.90
17948;DHT22;9099;47.958;11.366;2023-02-26T04:47:57;-1.60;99.90
17948;DHT22;9099;47.958;11.366;2023-02-26T04:50:24;-1.50;99.90
17948;DHT22;9099;47.958;11.366;2023-02-26T04:52:51;-1.50;99.90
17948;DHT22;9099;47.958;11.366;2023-02-26T04:55:19;-1.60;99.90
17948;DHT22;9099;47.958;11.366;2023-02-26T04:57:46;-1.70;99.90
17948;DHT22;9099;47.958;11.366;2023-02-26T05:00:14;-1.70;99.90
17948;DHT22;9099;47.958;11.366;2023-02-26T05:02:42;-1.70;99.90
17948;DHT22;9099;47.958;11.366;2023-02-26T05:05:09;-1.60;99.90
17948;DHT22;9099;47.958;11.366;2023-02-26T05:07:35;-1.60;99.90
17948;DHT22;9099;47.958;11.366;2023-02-26T05:10:03;-1.60;99.90
17948;DHT22;9099;47.958;11.366;2023-02-26T05:12:31;-1.50;99.90
17948;DHT22;9099;47.958;11.366;2023-02-26T05:14:59;-1.50;99.90
17948;DHT22;9099;47.958;11.366;2023-02-26T05:17:26;-1.50;99.90
17948;DHT22;9099;47.958;11.366;2023-02-26T05:19:53;-1.50;99.90
17948;DHT22;9099;47.958;11.366;2023-02-26T05:22:19;-1.40;99.90
17948;DHT22;9099;47.958;11.366;2023-02-26T05:24:46;-1.40;99.90
17948;DHT22;9099;47.958;11.366;2023-02-26T05:27:14;-1.40;99.90
17948;DHT22;9099;47.958;11.366;2023-02-26T05:29:42;-1.40;99.90
17948;DHT22;9099;47.958;11.366;2023-02-26T05:32:09;-1.40;99.90
17948;DHT22;9099;47.958;11.366;2023-02-26T05:34:37;-1.40;99.90
17948;DHT22;9099;47.958;11.366;2023-02-26T05:37:04;-1.40;99.90
17948;DHT22;9099;47.958;11.366;2023-02-26T05:39:30;-1.40;99.90
17948;DHT22;9099;47.958;11.366;2023-02-26T05:41:58;-1.40;99.90
17948;DHT22;9099;47.958;11.366;2023-02-26T05:44:25;-1.40;99.90
17948;DHT22;9099;47.958;11.366;2023-02-26T05:46:53;-1.40;99.90
17948;DHT22;9099;47.958;11.366;2023-02-26T05:49:20;-1.40;99.90
17948;DHT22;9099;47.958;11.366;2023-02-26T05:51:47;-1.40;99.90
17948;DHT22;9099;47.958;11.366;2023-02-26T05:54:14;-1.30;99.90
17948;DHT22;9099;47.958;11.366;2023-02-26T05:56:41;-1.30;99.90
17948;DHT22;9099;47.958;11.366;2023-02-26T05:59:07;-1.30;99.90
17948;DHT22;9099;47.958;11.366;2023-02-26T06:01:35;-1.30;99.90
17948;DHT22;9099;47.958;11.366;2023-02-26T06:04:04;-1.30;99.90
17948;DHT22;9099;47.958;11.366;2023-02-26T06:06:32;-1.40;99.90
17948;DHT22;9099;47.958;11.366;2023-02-26T06:08:58;-1.40;99.90
17948;DHT22;9099;47.958;11.366;2023-02-26T06:11:26;-1.40;99.90
17948;DHT22;9099;47.958;11.366;2023-02-26T06:13:53;-1.60;99.90
17948;DHT22;9099;47.958;11.366;2023-02-26T06:16:21;-1.60;99.90
17948;DHT22;9099;47.958;11.366;2023-02-26T06:18:47;-1.60;99.90
17948;DHT22;9099;47.958;11.366;2023-02-26T06:21:16;-1.60;99.90
17948;DHT22;9099;47.958;11.366;2023-02-26T06:23:43;-1.50;99.90
17948;DHT22;9099;47.958;11.366;2023-02-26T06:26:10;-1.50;99.90
17948;DHT22;9099;47.958;11.366;2023-02-26T06:28:38;-1.40;99.90
17948;DHT22;9099;47.958;11.366;2023-02-26T06:31:04;-1.30;99.90
17948;DHT22;9099;47.958;11.366;2023-02-26T06:33:31;-1.30;99.90
17948;DHT22;9099;47.958;11.366;2023-02-26T06:35:58;-1.30;99.90
17948;DHT22;9099;47.958;11.366;2023-02-26T06:38:27;-1.20;99.90
17948;DHT22;9099;47.958;11.366;2023-02-26T06:40:54;-1.30;99.90
17948;DHT22;9099;47.958;11.366;2023-02-26T06:43:21;-1.30;99.90
17948;DHT22;9099;47.958;11.366;2023-02-26T06:45:48;-1.30;99.90
17948;DHT22;9099;47.958;11.366;2023-02-26T06:48:15;-1.30;99.90
17948;DHT22;9099;47.958;11.366;2023-02-26T06:50:42;-1.20;99.90
17948;DHT22;9099;47.958;11.366;2023-02-26T06:53:08;-1.20;99.90
17948;DHT22;9099;47.958;11.366;2023-02-26T06:55:42;-1.20;99.90
17948;DHT22;9099;47.958;11.366;2023-02-26T06:58:10;-1.20;99.90
17948;DHT22;9099;47.958;11.366;2023-02-26T07:00:37;-1.20;99.90
17948;DHT22;9099;47.958;11.366;2023-02-26T07:03:06;-1.10;99.90
17948;DHT22;9099;47.958;11.366;2023-02-26T07:05:33;-1.10;99.90
17948;DHT22;9099;47.958;11.366;2023-02-26T07:07:59;-1.10;99.90
17948;DHT22;9099;47.958;11.366;2023-02-26T07:10:26;-1.10;99.90
17948;DHT22;9099;47.958;11.366;2023-02-26T07:12:55;-1.00;99.90
17948;DHT22;9099;47.958;11.366;2023-02-26T07:15:21;-0.90;99.90
17948;DHT22;9099;47.958;11.366;2023-02-26T07:17:48;-0.80;99.90
17948;DHT22;9099;47.958;11.366;2023-02-26T07:20:15;-0.60;99.90
17948;DHT22;9099;47.958;11.366;2023-02-26T07:22:43;-0.40;99.90
17948;DHT22;9099;47.958;11.366;2023-02-26T07:25:11;-0.40;99.90
17948;DHT22;9099;47.958;11.366;2023-02-26T07:27:38;-0.30;99.90
17948;DHT22;9099;47.958;11.366;2023-02-26T07:30:09;-0.50;99.90
17948;DHT22;9099;47.958;11.366;2023-02-26T07:32:36;-0.60;99.90
17948;DHT22;9099;47.958;11.366;2023-02-26T07:35:03;-0.50;99.90
17948;DHT22;9099;47.958;11.366;2023-02-26T07:37:30;-0.50;99.90
17948;DHT22;9099;47.958;11.366;2023-02-26T07:39:57;-0.50;99.90
17948;DHT22;9099;47.958;11.366;2023-02-26T07:42:24;-0.50;99.90
17948;DHT22;9099;47.958;11.366;2023-02-26T07:44:51;-0.40;99.90
17948;DHT22;9099;47.958;11.366;2023-02-26T07:47:19;-0.40;99.90
17948;DHT22;9099;47.958;11.366;2023-02-26T07:49:46;-0.40;99.90
17948;DHT22;9099;47.958;11.366;2023-02-26T07:52:13;-0.40;99.90
17948;DHT22;9099;47.958;11.366;2023-02-26T07:54:39;-0.40;99.90
17948;DHT22;9099;47.958;11.366;2023-02-26T07:57:06;-0.40;99.90
17948;DHT22;9099;47.958;11.366;2023-02-26T07:59:33;-0.40;99.90
17948;DHT22;9099;47.958;11.366;2023-02-26T08:02:00;-0.30;99.90
17948;DHT22;9099;47.958;11.366;2023-02-26T08:04:29;-0.30;99.90
17948;DHT22;9099;47.958;11.366;2023-02-26T08:06:57;-0.20;99.90
17948;DHT22;9099;47.958;11.366;2023-02-26T08:09:25;-0.20;99.90
17948;DHT22;9099;47.958;11.366;2023-02-26T08:11:52;-0.30;99.90
17948;DHT22;9099;47.958;11.366;2023-02-26T08:14:19;-0.30;99.90
17948;DHT22;9099;47.958;11.366;2023-02-26T08:16:46;-0.40;99.90
17948;DHT22;9099;47.958;11.366;2023-02-26T08:19:13;-0.60;99.90
17948;DHT22;9099;47.958;11.366;2023-02-26T08:21:41;-0.80;99.90
17948;DHT22;9099;47.958;11.366;2023-02-26T08:24:09;-0.90;99.90
17948;DHT22;9099;47.958;11.366;2023-02-26T08:26:37;-0.90;99.90
17948;DHT22;9099;47.958;11.366;2023-02-26T08:29:04;-0.80;99.90
17948;DHT22;9099;47.958;11.366;2023-02-26T08:31:32;-0.60;99.90
17948;DHT22;9099;47.958;11.366;2023-02-26T08:34:00;-0.50;99.90
17948;DHT22;9099;47.958;11.366;2023-02-26T08:36:27;-0.30;99.90
17948;DHT22;9099;47.958;11.366;2023-02-26T08:38:55;-0.20;99.90
17948;DHT22;9099;47.958;11.366;2023-02-26T08:41:22;-0.10;99.90
17948;DHT22;9099;47.958;11.366;2023-02-26T08:43:52;0.10;99.90
17948;DHT22;9099;47.958;11.366;2023-02-26T08:46:19;0.10;99.90
17948;DHT22;9099;47.958;11.366;2023-02-26T08:48:46;0.10;99.90
17948;DHT22;9099;47.958;11.366;2023-02-26T08:51:13;0.10;99.90
17948;DHT22;9099;47.958;11.366;2023-02-26T08:53:39;0.20;99.90
17948;DHT22;9099;47.958;11.366;2023-02-26T08:56:07;0.20;99.90
17948;DHT22;9099;47.958;11.366;2023-02-26T08:58:34;0.10;99.90
17948;DHT22;9099;47.958;11.366;2023-02-26T09:01:01;0.10;99.90
17948;DHT22;9099;47.958;11.366;2023-02-26T09:03:28;0.20;99.90
17948;DHT22;9099;47.958;11.366;2023-02-26T09:05:55;0.30;99.90
17948;DHT22;9099;47.958;11.366;2023-02-26T09:08:22;0.40;99.90
17948;DHT22;9099;47.958;11.366;2023-02-26T09:10:49;0.50;99.90
17948;DHT22;9099;47.958;11.366;2023-02-26T09:13:17;0.50;99.90
17948;DHT22;9099;47.958;11.366;2023-02-26T09:15:44;1.90;99.90
17948;DHT22;9099;47.958;11.366;2023-02-26T09:18:11;2.50;99.90
17948;DHT22;9099;47.958;11.366;2023-02-26T09:20:40;2.80;99.90
17948;DHT22;9099;47.958;11.366;2023-02-26T09:23:07;2.80;99.90
17948;DHT22;9099;47.958;11.366;2023-02-26T09:25:34;2.70;99.90
17948;DHT22;9099;47.958;11.366;2023-02-26T09:28:01;2.70;99.90
17948;DHT22;9099;47.958;11.366;2023-02-26T09:30:29;2.60;99.90
17948;DHT22;9099;47.958;11.366;2023-02-26T09:32:56;2.60;99.90
17948;DHT22;9099;47.958;11.366;2023-02-26T09:35:23;2.50;99.90
17948;DHT22;9099;47.958;11.366;2023-02-26T09:37:50;2.40;99.90
17948;DHT22;9099;47.958;11.366;2023-02-26T09:40:22;2.00;99.90
17948;DHT22;9099;47.958;11.366;2023-02-26T09:43:02;1.80;99.90
17948;DHT22;9099;47.958;11.366;2023-02-26T09:45:36;1.70;99.90
17948;DHT22;9099;47.958;11.366;2023-02-26T09:48:05;1.20;99.90
17948;DHT22;9099;47.958;11.366;2023-02-26T09:50:39;0.80;99.90
17948;DHT22;9099;47.958;11.366;2023-02-26T09:53:16;0.60;99.90
17948;DHT22;9099;47.958;11.366;2023-02-26T09:55:46;0.40;99.90
17948;DHT22;9099;47.958;11.366;2023-02-26T09:58:18;0.60;99.90
17948;DHT22;9099;47.958;11.366;2023-02-26T10:00:55;1.00;99.90
17948;DHT22;9099;47.958;11.366;2023-02-26T10:03:27;1.10;99.90
17948;DHT22;9099;47.958;11.366;2023-02-26T10:06:14;1.10;99.90
17948;DHT22;9099;47.958;11.366;2023-02-26T10:08:48;1.10;99.90
17948;DHT22;9099;47.958;11.366;2023-02-26T10:11:24;2.20;99.90
17948;DHT22;9099;47.958;11.366;2023-02-26T10:13:57;2.90;99.90
17948;DHT22;9099;47.958;11.366;2023-02-26T10:16:32;3.20;99.90
17948;DHT22;9099;47.958;11.366;2023-02-26T10:19:03;3.00;99.90
17948;DHT22;9099;47.958;11.366;2023-02-26T10:21:36;2.60;99.90
17948;DHT22;9099;47.958;11.366;2023-02-26T10:24:08;2.00;99.90
17948;DHT22;9099;47.958;11.366;2023-02-26T10:26:39;1.90;99.90
17948;DHT22;9099;47.958;11.366;2023-02-26T10:29:16;1.70;99.90
17948;DHT22;9099;47.958;11.366;2023-02-26T10:31:55;1.70;99.90
17948;DHT22;9099;47.958;11.366;2023-02-26T10:34:28;1.60;99.90
17948;DHT22;9099;47.958;11.366;2023-02-26T10:37:02;1.60;99.90
17948;DHT22;9099;47.958;11.366;2023-02-26T10:39:34;1.40;99.90
17948;DHT22;9099;47.958;11.366;2023-02-26T10:42:11;1.10;99.90
17948;DHT22;9099;47.958;11.366;2023-02-26T10:44:45;0.90;99.90
17948;DHT22;9099;47.958;11.366;2023-02-26T10:47:22;0.70;99.90
17948;DHT22;9099;47.958;11.366;2023-02-26T10:49:53;0.40;99.90
17948;DHT22;9099;47.958;11.366;2023-02-26T10:52:24;0.20;99.90
17948;DHT22;9099;47.958;11.366;2023-02-26T10:55:01;0.00;99.90
17948;DHT22;9099;47.958;11.366;2023-02-26T10:57:30;-0.10;99.90
17948;DHT22;9099;47.958;11.366;2023-02-26T10:59:58;0.00;99.90
17948;DHT22;9099;47.958;11.366;2023-02-26T11:02:39;0.00;99.90
17948;DHT22;9099;47.958;11.366;2023-02-26T11:05:15;0.00;99.90
17948;DHT22;9099;47.958;11.366;2023-02-26T11:07:42;-0.20;99.90
17948;DHT22;9099;47.958;11.366;2023-02-26T11:10:17;-0.10;99.90
17948;DHT22;9099;47.958;11.366;2023-02-26T11:12:45;0.10;99.90
17948;DHT22;9099;47.958;11.366;2023-02-26T11:15:13;0.30;99.90
17948;DHT22;9099;47.958;11.366;2023-02-26T11:17:42;0.50;99.90
17948;DHT22;9099;47.958;11.366;2023-02-26T11:20:17;0.70;99.90
17948;DHT22;9099;47.958;11.366;2023-02-26T11:22:47;0.60;99.90
17948;DHT22;9099;47.958;11.366;2023-02-26T11:25:17;0.50;99.90
17948;DHT22;9099;47.958;11.366;2023-02-26T11:27:47;0.60;99.90
17948;DHT22;9099;47.958;11.366;2023-02-26T11:30:16;0.70;99.90
17948;DHT22;9099;47.958;11.366;2023-02-26T11:32:50;0.70;99.90
17948;DHT22;9099;47.958;11.366;2023-02-26T11:35:21;0.60;99.90
17948;DHT22;9099;47.958;11.366;2023-02-26T11:37:52;0.50;99.90
17948;DHT22;9099;47.958;11.366;2023-02-26T11:40:22;0.50;99.90
17948;DHT22;9099;47.958;11.366;2023-02-26T11:42:52;0.60;99.90
17948;DHT22;9099;47.958;11.366;2023-02-26T11:45:20;0.50;99.90
17948;DHT22;9099;47.958;11.366;2023-02-26T11:48:03;0.60;99.90
17948;DHT22;9099;47.958;11.366;2023-02-26T11:50:37;0.80;99.90
17948;DHT22;9099;47.958;11.366;2023-02-26T11:53:13;1.10;99.90
17948;DHT22;9099;47.958;11.366;2023-02-26T11:55:44;1.40;99.90
17948;DHT22;9099;47.958;11.366;2023-02-26T11:58:17;1.30;99.90
17948;DHT22;9099;47.958;11.366;2023-02-26T12:00:45;1.30;99.90
17948;DHT22;9099;47.958;11.366;2023-02-26T12:03:17;1.00;99.90
17948;DHT22;9099;47.958;11.366;2023-02-26T12:05:45;0.80;99.90
17948;DHT22;9099;47.958;11.366;2023-02-26T12:08:24;0.80;99.90
17948;DHT22;9099;47.958;11.366;2023-02-26T12:11:04;0.90;99.90
17948;DHT22;9099;47.958;11.366;2023-02-26T12:13:37;0.90;99.90
17948;DHT22;9099;47.958;11.366;2023-02-26T12:16:14;1.10;99.90
17948;DHT22;9099;47.958;11.366;2023-02-26T12:18:52;1.00;99.90
17948;DHT22;9099;47.958;11.366;2023-02-26T12:21:38;1.00;99.90
17948;DHT22;9099;47.958;11.366;2023-02-26T12:27:05;1.70;99.90
17948;DHT22;9099;47.958;11.366;2023-02-26T12:29:50;1.70;99.90
17948;DHT22;9099;47.958;11.366;2023-02-26T12:32:39;1.60;99.90
17948;DHT22;9099;47.958;11.366;2023-02-26T12:38:18;1.40;99.90
17948;DHT22;9099;47.958;11.366;2023-02-26T12:43:50;1.10;99.90
17948;DHT22;9099;47.958;11.366;2023-02-26T12:46:40;1.10;99.90
17948;DHT22;9099;47.958;11.366;2023-02-26T12:52:38;1.10;99.90
17948;DHT22;9099;47.958;11.366;2023-02-26T12:55:22;1.10;99.90
17948;DHT22;9099;47.958;11.366;2023-02-26T12:58:24;1.00;99.90
17948;DHT22;9099;47.958;11.366;2023-02-26T13:01:14;1.00;99.90
17948;DHT22;9099;47.958;11.366;2023-02-26T13:07:00;1.70;99.90
17948;DHT22;9099;47.958;11.366;2023-02-26T13:09:44;1.50;99.90
17948;DHT22;9099;47.958;11.366;2023-02-26T13:12:27;1.60;99.90
17948;DHT22;9099;47.958;11.366;2023-02-26T13:15:04;1.70;99.90
17948;DHT22;9099;47.958;11.366;2023-02-26T13:17:40;1.40;99.90
17948;DHT22;9099;47.958;11.366;2023-02-26T13:20:12;1.20;99.90
17948;DHT22;9099;47.958;11.366;2023-02-26T13:22:45;1.00;99.90
17948;DHT22;9099;47.958;11.366;2023-02-26T13:25:18;1.00;99.90
17948;DHT22;9099;47.958;11.366;2023-02-26T13:27:49;1.20;99.90
17948;DHT22;9099;47.958;11.366;2023-02-26T13:30:21;1.00;99.90
17948;DHT22;9099;47.958;11.366;2023-02-26T13:32:52;1.00;99.90
17948;DHT22;9099;47.958;11.366;2023-02-26T13:35:23;1.10;99.90
17948;DHT22;9099;47.958;11.366;2023-02-26T13:37:53;1.40;99.90
17948;DHT22;9099;47.958;11.366;2023-02-26T13:40:44;1.60;99.90
17948;DHT22;9099;47.958;11.366;2023-02-26T13:43:35;1.70;99.90
17948;DHT22;9099;47.958;11.366;2023-02-26T13:46:23;1.80;99.90
17948;DHT22;9099;47.958;11.366;2023-02-26T13:49:00;2.10;99.90
17948;DHT22;9099;47.958;11.366;2023-02-26T13:51:33;2.40;99.90
17948;DHT22;9099;47.958;11.366;2023-02-26T13:54:02;2.50;99.90
17948;DHT22;9099;47.958;11.366;2023-02-26T13:56:48;2.30;99.90
17948;DHT22;9099;47.958;11.366;2023-02-26T13:59:30;2.20;99.90
17948;DHT22;9099;47.958;11.366;2023-02-26T14:02:02;2.40;99.90
17948;DHT22;9099;47.958;11.366;2023-02-26T14:04:31;2.50;99.90
17948;DHT22;9099;47.958;11.366;2023-02-26T14:07:03;2.50;99.90
17948;DHT22;9099;47.958;11.366;2023-02-26T14:09:43;2.40;99.90
17948;DHT22;9099;47.958;11.366;2023-02-26T14:12:40;2.30;99.90
17948;DHT22;9099;47.958;11.366;2023-02-26T14:17:50;2.50;99.90
17948;DHT22;9099;47.958;11.366;2023-02-26T14:20:21;2.80;99.90
17948;DHT22;9099;47.958;11.366;2023-02-26T14:25:37;3.10;99.90
17948;DHT22;9099;47.958;11.366;2023-02-26T14:28:45;3.30;99.90
17948;DHT22;9099;47.958;11.366;2023-02-26T14:31:22;3.40;99.90
17948;DHT22;9099;47.958;11.366;2023-02-26T14:34:05;3.20;99.90
17948;DHT22;9099;47.958;11.366;2023-02-26T14:36:36;2.50;99.90
17948;DHT22;9099;47.958;11.366;2023-02-26T14:39:06;1.90;99.90
17948;DHT22;9099;47.958;11.366;2023-02-26T14:41:38;1.60;99.90
17948;DHT22;9099;47.958;11.366;2023-02-26T14:44:12;1.40;99.90
17948;DHT22;9099;47.958;11.366;2023-02-26T14:46:42;1.30;99.90
17948;DHT22;9099;47.958;11.366;2023-02-26T14:49:24;1.20;99.90
17948;DHT22;9099;47.958;11.366;2023-02-26T14:54:56;1.00;99.90
17948;DHT22;9099;47.958;11.366;2023-02-26T14:57:32;0.80;99.90
17948;DHT22;9099;47.958;11.366;2023-02-26T15:00:11;0.80;99.90
17948;DHT22;9099;47.958;11.366;2023-02-26T15:03:02;0.70;99.90
17948;DHT22;9099;47.958;11.366;2023-02-26T15:05:47;0.80;99.90
17948;DHT22;9099;47.958;11.366;2023-02-26T15:08:33;0.80;99.90
17948;DHT22;9099;47.958;11.366;2023-02-26T15:11:14;0.80;99.90
17948;DHT22;9099;47.958;11.366;2023-02-26T15:14:03;0.70;99.90
17948;DHT22;9099;47.958;11.366;2023-02-26T15:16:44;0.70;99.90
17948;DHT22;9099;47.958;11.366;2023-02-26T15:19:32;0.80;99.90
17948;DHT22;9099;47.958;11.366;2023-02-26T15:22:16;0.70;99.90
17948;DHT22;9099;47.958;11.366;2023-02-26T15:24:47;0.50;99.90
17948;DHT22;9099;47.958;11.366;2023-02-26T15:27:17;0.10;99.90
17948;DHT22;9099;47.958;11.366;2023-02-26T15:29:46;-0.10;99.90
17948;DHT22;9099;47.958;11.366;2023-02-26T15:32:16;-0.40;99.90
17948;DHT22;9099;47.958;11.366;2023-02-26T15:34:54;-0.60;99.90
17948;DHT22;9099;47.958;11.366;2023-02-26T15:37:24;-0.70;99.90
17948;DHT22;9099;47.958;11.366;2023-02-26T15:39:52;-0.70;99.90
17948;DHT22;9099;47.958;11.366;2023-02-26T15:42:25;-0.80;99.90
17948;DHT22;9099;47.958;11.366;2023-02-26T15:44:55;-0.80;99.90
17948;DHT22;9099;47.958;11.366;2023-02-26T15:47:23;-0.80;99.90
17948;DHT22;9099;47.958;11.366;2023-02-26T15:49:51;-0.80;99.90
17948;DHT22;9099;47.958;11.366;2023-02-26T15:52:21;-0.80;99.90
17948;DHT22;9099;47.958;11.366;2023-02-26T15:54:51;-0.80;99.90
17948;DHT22;9099;47.958;11.366;2023-02-26T15:57:19;-0.70;99.90
17948;DHT22;9099;47.958;11.366;2023-02-26T15:59:50;-0.60;99.90
17948;DHT22;9099;47.958;11.366;2023-02-26T16:02:25;-0.50;99.90
17948;DHT22;9099;47.958;11.366;2023-02-26T16:04:54;-0.50;99.90
17948;DHT22;9099;47.958;11.366;2023-02-26T16:07:21;-0.50;99.90
17948;DHT22;9099;47.958;11.366;2023-02-26T16:09:51;-0.50;99.90
17948;DHT22;9099;47.958;11.366;2023-02-26T16:12:21;-0.40;99.90
17948;DHT22;9099;47.958;11.366;2023-02-26T16:14:52;-0.40;99.90
17948;DHT22;9099;47.958;11.366;2023-02-26T16:17:24;-0.40;99.90
17948;DHT22;9099;47.958;11.366;2023-02-26T16:19:54;-0.50;99.90
17948;DHT22;9099;47.958;11.366;2023-02-26T16:22:25;-0.50;99.90
17948;DHT22;9099;47.958;11.366;2023-02-26T16:24:56;-0.60;99.90
17948;DHT22;9099;47.958;11.366;2023-02-26T16:27:26;-0.60;99.90
17948;DHT22;9099;47.958;11.366;2023-02-26T16:29:56;-0.60;99.90